Time;durP1;ratioP1;P1;durP2;ratioP2;P2;SDS_P1;SDS_P2;PMS_P1;PMS_P2;Temp;Humidity;BMP_temperature;BMP_pressure;BME280_temperature;BME280_humidity;BME280_pressure;Samples;Min_cycle;Max_cycle;Signal;HPM_P1;HPM_P2
2022/11/21 00:04:29;;;;;;;;;;;;;;;3.11;100.00;94911.06;10583859;27;2995;-71
2022/11/21 00:09:44;;;;;;;;;;;;;;;3.12;100.00;94931.28;10595706;27;2838;-70
2022/11/21 00:14:52;;;;;;;;;;;;;;;3.08;100.00;94924.84;10587462;27;3003;-71
2022/11/21 00:20:02;;;;;;;;;;;;;;;3.18;100.00;94917.00;10605351;27;2824;-70
2022/11/21 00:25:06;;;;;;;;;;;;;;;3.25;100.00;94919.47;10602943;27;2888;-70
2022/11/21 00:30:19;;;;;;;;;;;;;;;3.23;100.00;94916.25;10599650;27;2871;-71
2022/11/21 00:35:27;;;;;;;;;;;;;;;3.28;100.00;94912.84;10582237;27;2896;-71
2022/11/21 00:40:34;;;;;;;;;;;;;;;3.36;100.00;94915.84;10592377;27;2937;-70
2022/11/21 00:45:42;;;;;;;;;;;;;;;3.37;100.00;94912.16;10596226;27;2851;-71
2022/11/21 00:50:50;;;;;;;;;;;;;;;3.40;100.00;94908.19;10595573;27;2904;-71
2022/11/21 00:55:56;;;;;;;;;;;;;;;3.43;100.00;94903.19;10592301;27;2894;-71
2022/11/21 01:01:06;;;;;;;;;;;;;;;3.37;100.00;94906.03;10599812;27;2932;-69
2022/11/21 01:06:13;;;;;;;;;;;;;;;3.46;100.00;94900.03;10593252;27;2867;-71
2022/11/21 01:11:28;;;;;;;;;;;;;;;3.48;100.00;94889.94;10598921;27;2875;-70
2022/11/21 01:16:35;;;;;;;;;;;;;;;3.55;100.00;94908.34;10608392;27;2896;-71
2022/11/21 01:21:41;;;;;;;;;;;;;;;3.39;100.00;94899.44;10576170;27;2912;-70
2022/11/21 01:26:50;;;;;;;;;;;;;;;3.37;100.00;94895.41;10609900;27;2923;-70
2022/11/21 01:31:53;;;;;;;;;;;;;;;3.37;100.00;94890.91;10600391;27;2821;-71
2022/11/21 01:37:01;;;;;;;;;;;;;;;3.32;100.00;94895.38;10584991;27;2910;-71
2022/11/21 01:42:07;;;;;;;;;;;;;;;3.41;100.00;94892.00;10577490;27;2890;-71
2022/11/21 01:47:12;;;;;;;;;;;;;;;3.40;100.00;94868.34;10600681;27;2876;-70
2022/11/21 01:52:16;;;;;;;;;;;;;;;3.39;100.00;94885.34;10570378;27;2900;-72
2022/11/21 01:57:19;;;;;;;;;;;;;;;3.44;100.00;94869.47;10594525;27;3258;-70
2022/11/21 02:02:28;;;;;;;;;;;;;;;3.40;100.00;94857.72;10594009;27;2887;-75
2022/11/21 02:07:35;;;;;;;;;;;;;;;3.38;100.00;94844.69;10598609;27;2790;-74
2022/11/21 02:12:40;;;;;;;;;;;;;;;3.24;100.00;94841.66;10580354;27;2965;-72
2022/11/21 02:17:48;;;;;;;;;;;;;;;3.14;100.00;94846.03;10590473;27;3021;-75
2022/11/21 02:22:56;;;;;;;;;;;;;;;3.16;100.00;94826.13;10600234;27;2868;-73
2022/11/21 02:28:01;;;;;;;;;;;;;;;3.09;100.00;94817.56;10590253;27;2908;-73
2022/11/21 02:33:14;;;;;;;;;;;;;;;3.15;100.00;94821.09;10593315;27;2821;-71
2022/11/21 02:38:26;;;;;;;;;;;;;;;3.12;100.00;94817.09;10586779;27;2900;-71
2022/11/21 02:43:33;;;;;;;;;;;;;;;3.15;100.00;94815.78;10594558;27;2856;-71
2022/11/21 02:48:48;;;;;;;;;;;;;;;3.23;100.00;94812.66;10594605;27;2943;-71
2022/11/21 02:54:00;;;;;;;;;;;;;;;3.19;100.00;94815.03;10604321;27;2946;-71
2022/11/21 02:59:10;;;;;;;;;;;;;;;3.23;100.00;94815.31;10598729;27;2892;-70
2022/11/21 03:04:20;;;;;;;;;;;;;;;3.24;100.00;94823.06;10593956;27;2978;-70
2022/11/21 03:09:31;;;;;;;;;;;;;;;3.28;100.00;94812.72;10602897;27;3217;-73
2022/11/21 03:14:40;;;;;;;;;;;;;;;3.16;100.00;94810.22;10598784;27;2818;-71
2022/11/21 03:19:44;;;;;;;;;;;;;;;3.07;100.00;94806.41;10586864;27;2866;-72
2022/11/21 03:24:50;;;;;;;;;;;;;;;3.00;100.00;94799.69;10603858;27;2868;-71
2022/11/21 03:30:00;;;;;;;;;;;;;;;2.95;100.00;94780.00;10592928;27;2853;-71
2022/11/21 03:35:13;;;;;;;;;;;;;;;2.90;100.00;94781.78;10601841;27;2865;-71
2022/11/21 03:40:30;;;;;;;;;;;;;;;2.80;100.00;94782.50;10597108;27;2845;-71
2022/11/21 03:45:35;;;;;;;;;;;;;;;2.81;100.00;94775.34;10583327;27;2867;-71
2022/11/21 03:50:39;;;;;;;;;;;;;;;2.87;100.00;94775.16;10592471;27;2951;-71
2022/11/21 03:55:53;;;;;;;;;;;;;;;2.99;100.00;94764.38;10594323;27;2887;-71
2022/11/21 04:00:57;;;;;;;;;;;;;;;3.06;100.00;94757.00;10595296;28;3014;-71
2022/11/21 04:06:02;;;;;;;;;;;;;;;3.19;100.00;94761.13;10590612;28;2919;-70
2022/11/21 04:11:08;;;;;;;;;;;;;;;3.34;100.00;94757.78;10570158;28;3016;-72
2022/11/21 04:16:14;;;;;;;;;;;;;;;3.41;100.00;94753.06;10588831;28;2932;-71
2022/11/21 04:21:22;;;;;;;;;;;;;;;3.49;100.00;94748.06;10590977;27;2976;-71
2022/11/21 04:26:28;;;;;;;;;;;;;;;3.51;100.00;94756.59;10598857;28;2884;-71
2022/11/21 04:31:33;;;;;;;;;;;;;;;3.62;100.00;94744.19;10591451;28;2908;-70
2022/11/21 04:36:40;;;;;;;;;;;;;;;3.66;100.00;94742.63;10595398;28;2828;-70
2022/11/21 04:41:46;;;;;;;;;;;;;;;3.60;100.00;94746.31;10578114;27;2908;-71
2022/11/21 04:46:52;;;;;;;;;;;;;;;3.59;100.00;94750.03;10597106;27;2917;-70
2022/11/21 04:52:18;;;;;;;;;;;;;;;3.54;100.00;94755.28;10606192;27;2824;-71
2022/11/21 04:57:30;;;;;;;;;;;;;;;3.41;100.00;94747.75;10577449;27;3238;-70
2022/11/21 05:02:33;;;;;;;;;;;;;;;3.38;100.00;94742.97;10600014;27;2904;-71
2022/11/21 05:07:37;;;;;;;;;;;;;;;3.24;100.00;94721.31;10589852;27;2843;-71
2022/11/21 05:18:03;;;;;;;;;;;;;;;3.20;100.00;94721.03;10572837;27;2907;-72
2022/11/21 05:23:15;;;;;;;;;;;;;;;3.21;100.00;94714.66;10592760;27;2852;-75
2022/11/21 05:28:23;;;;;;;;;;;;;;;3.23;100.00;94709.88;10599547;27;2899;-75
2022/11/21 05:33:30;;;;;;;;;;;;;;;3.32;100.00;94710.25;10594416;27;2948;-75
2022/11/21 05:38:37;;;;;;;;;;;;;;;3.27;100.00;94712.03;10601282;27;2900;-72
2022/11/21 05:43:48;;;;;;;;;;;;;;;3.27;100.00;94712.84;10594800;27;2853;-72
2022/11/21 05:49:08;;;;;;;;;;;;;;;3.22;100.00;94702.97;10602761;27;2922;-71
2022/11/21 05:54:16;;;;;;;;;;;;;;;3.16;100.00;94721.78;10594800;27;2859;-71
2022/11/21 05:59:31;;;;;;;;;;;;;;;3.16;100.00;94722.56;10617167;27;2908;-72
2022/11/21 06:04:37;;;;;;;;;;;;;;;3.19;100.00;94724.75;10600980;27;2915;-72
2022/11/21 06:09:45;;;;;;;;;;;;;;;3.25;100.00;94726.38;10605477;27;2931;-71
2022/11/21 06:14:52;;;;;;;;;;;;;;;3.20;100.00;94736.16;10601455;27;2900;-74
2022/11/21 06:20:01;;;;;;;;;;;;;;;3.15;100.00;94733.47;10609131;27;2856;-70
2022/11/21 06:25:08;;;;;;;;;;;;;;;3.17;100.00;94740.09;10582342;27;2899;-70
2022/11/21 06:30:20;;;;;;;;;;;;;;;3.25;100.00;94744.19;10592631;27;2833;-72
2022/11/21 06:35:27;;;;;;;;;;;;;;;3.35;100.00;94740.78;10612027;27;2915;-77
2022/11/21 06:40:32;;;;;;;;;;;;;;;3.37;100.00;94741.31;10609310;27;2888;-73
2022/11/21 06:45:46;;;;;;;;;;;;;;;3.44;100.00;94747.25;10572515;27;2954;-72
2022/11/21 06:50:55;;;;;;;;;;;;;;;3.51;100.00;94748.63;10599030;27;2849;-71
2022/11/21 06:56:01;;;;;;;;;;;;;;;3.53;100.00;94751.03;10585565;27;2859;-71
2022/11/21 07:01:09;;;;;;;;;;;;;;;3.55;100.00;94759.53;10602995;27;2959;-72
2022/11/21 07:06:18;;;;;;;;;;;;;;;3.48;100.00;94764.28;10594587;27;2923;-72
2022/11/21 07:11:26;;;;;;;;;;;;;;;3.44;100.00;94763.19;10603047;27;2923;-72
2022/11/21 07:16:31;;;;;;;;;;;;;;;3.31;100.00;94774.22;10582896;27;2990;-72
2022/11/21 07:21:36;;;;;;;;;;;;;;;3.36;100.00;94784.88;10597880;27;3009;-72
2022/11/21 07:26:41;;;;;;;;;;;;;;;3.24;100.00;94779.72;10590290;27;3288;-73
2022/11/21 07:31:59;;;;;;;;;;;;;;;3.20;100.00;94789.28;10602285;27;3243;-71
2022/11/21 07:37:04;;;;;;;;;;;;;;;3.09;100.00;94793.66;10601708;27;3213;-72
2022/11/21 07:42:12;;;;;;;;;;;;;;;3.04;100.00;94793.63;10598067;27;3165;-72
2022/11/21 07:47:20;;;;;;;;;;;;;;;3.01;100.00;94802.09;10611211;27;3176;-75
2022/11/21 07:52:29;;;;;;;;;;;;;;;2.94;100.00;94807.59;10604906;27;3299;-74
2022/11/21 07:57:41;;;;;;;;;;;;;;;3.01;100.00;94806.59;10594209;27;3454;-72
2022/11/21 08:02:49;;;;;;;;;;;;;;;3.11;100.00;94802.19;10601631;27;3121;-71
2022/11/21 08:07:55;;;;;;;;;;;;;;;3.25;100.00;94803.41;10587375;28;3136;-75
2022/11/21 08:13:10;;;;;;;;;;;;;;;3.35;100.00;94815.97;10589972;28;3169;-71
2022/11/21 08:18:17;;;;;;;;;;;;;;;3.48;100.00;94812.91;10580001;27;3191;-71
2022/11/21 08:23:22;;;;;;;;;;;;;;;3.50;100.00;94807.34;10597294;27;3128;-72
2022/11/21 08:28:26;;;;;;;;;;;;;;;3.47;100.00;94807.84;10583942;27;3188;-72
2022/11/21 08:33:31;;;;;;;;;;;;;;;3.68;100.00;94817.56;10593156;27;3520;-72
2022/11/21 08:38:36;;;;;;;;;;;;;;;3.82;100.00;94811.84;10594072;27;3263;-71
2022/11/21 08:43:43;;;;;;;;;;;;;;;3.88;100.00;94811.66;10602894;27;3183;-73
2022/11/21 08:48:51;;;;;;;;;;;;;;;3.95;100.00;94819.41;10602024;27;3217;-74
2022/11/21 08:54:02;;;;;;;;;;;;;;;4.24;100.00;94807.34;10590996;27;3120;-74
2022/11/21 08:59:07;;;;;;;;;;;;;;;4.52;100.00;94805.38;10587584;27;3213;-74
2022/11/21 09:04:12;;;;;;;;;;;;;;;4.70;100.00;94791.59;10590686;27;3211;-71
2022/11/21 09:09:28;;;;;;;;;;;;;;;5.04;100.00;94805.31;10587865;27;3136;-71
2022/11/21 09:19:59;;;;;;;;;;;;;;;4.92;100.00;94798.63;10602482;27;3270;-71
2022/11/21 09:25:13;;;;;;;;;;;;;;;4.97;100.00;94799.44;10618077;27;3232;-71
2022/11/21 09:30:20;;;;;;;;;;;;;;;5.06;100.00;94794.38;10584873;27;3245;-72
2022/11/21 09:35:32;;;;;;;;;;;;;;;5.19;100.00;94798.41;10611387;27;3149;-71
2022/11/21 09:40:39;;;;;;;;;;;;;;;5.10;100.00;94798.13;10601341;27;3140;-73
2022/11/21 09:45:44;;;;;;;;;;;;;;;5.30;100.00;94782.19;10586924;27;3769;-71
2022/11/21 09:50:48;;;;;;;;;;;;;;;5.25;100.00;94776.03;10622085;27;3180;-72
2022/11/21 09:55:57;;;;;;;;;;;;;;;5.41;100.00;94775.81;10603803;27;3263;-72
2022/11/21 10:01:06;;;;;;;;;;;;;;;5.53;100.00;94762.19;10596188;27;3223;-72
2022/11/21 10:06:13;;;;;;;;;;;;;;;6.08;100.00;94763.25;10586931;27;3200;-72
2022/11/21 10:11:19;;;;;;;;;;;;;;;6.52;100.00;94754.63;10593184;27;3257;-71
2022/11/21 10:16:28;;;;;;;;;;;;;;;6.67;100.00;94749.19;10598539;27;3100;-71
2022/11/21 10:21:36;;;;;;;;;;;;;;;6.51;100.00;94750.34;10591076;27;3292;-73
2022/11/21 10:26:43;;;;;;;;;;;;;;;6.16;100.00;94745.91;10592904;27;3194;-71
2022/11/21 10:31:47;;;;;;;;;;;;;;;5.88;100.00;94725.94;10580894;27;3126;-72
2022/11/21 10:36:56;;;;;;;;;;;;;;;5.83;100.00;94720.59;10596661;27;3148;-74
2022/11/21 10:42:11;;;;;;;;;;;;;;;6.40;100.00;94720.22;10594840;27;3218;-70
2022/11/21 10:47:26;;;;;;;;;;;;;;;6.41;100.00;94703.13;10588001;27;3308;-72
2022/11/21 10:52:30;;;;;;;;;;;;;;;6.49;100.00;94710.59;10586146;27;3243;-72
2022/11/21 10:57:38;;;;;;;;;;;;;;;6.82;100.00;94702.94;10596382;27;3180;-72
2022/11/21 11:02:48;;;;;;;;;;;;;;;7.26;100.00;94697.59;10593425;27;3165;-72
2022/11/21 11:07:55;;;;;;;;;;;;;;;7.31;100.00;94681.47;10598007;27;3158;-72
2022/11/21 11:18:44;;;;;;;;;;;;;;;7.29;100.00;94664.94;10591719;27;3202;-73
2022/11/21 11:23:52;;;;;;;;;;;;;;;7.55;100.00;94654.81;10597622;27;3097;-72
2022/11/21 11:28:58;;;;;;;;;;;;;;;7.37;100.00;94654.72;10584775;27;3227;-71
2022/11/21 11:34:05;;;;;;;;;;;;;;;7.37;100.00;94636.78;10575975;27;3196;-71
2022/11/21 11:39:15;;;;;;;;;;;;;;;7.30;100.00;94633.66;10580619;27;3149;-71
2022/11/21 11:55:07;;;;;;;;;;;7.50;99.90;;;6.43;100.00;94612.91;10578784;27;3109;-71
2022/11/21 12:05:39;;;;;;;;;;;7.40;99.90;;;6.69;100.00;94612.75;10552252;27;3211;-72
2022/11/21 12:12:05;;;;;;;;;;;7.50;99.90;;;6.83;100.00;94612.91;10540318;28;3246;-73
2022/11/21 12:16:06;;;;;;;;;;;7.50;99.90;;;6.59;100.00;94602.13;10538295;28;3152;-76
2022/11/21 12:21:15;;;;;;;;;;;7.50;99.90;;;6.31;100.00;94596.41;10542069;28;3175;-77
2022/11/21 12:26:17;;;;;;;;;;;7.30;99.90;;;6.12;100.00;94574.09;10560960;28;3219;-72
2022/11/21 12:31:20;;;;;;;;;;;7.20;99.90;;;5.92;100.00;94567.00;10542682;28;3190;-72
2022/11/21 12:36:23;;;;;;;;;;;7.00;99.90;;;5.79;100.00;94568.34;10540561;28;3201;-72
2022/11/21 12:46:48;;;;;;;;;;;6.80;99.90;;;6.43;100.00;94538.16;10538866;28;3236;-73
2022/11/21 12:57:12;;;;;;;;;;;7.30;99.90;;;7.01;100.00;94522.22;10539823;28;3177;-73
2022/11/21 13:02:15;;;;;;;;;;;7.60;99.90;;;6.89;100.00;94521.78;10543551;28;3167;-73
2022/11/21 13:07:18;;;;;;;;;;;7.80;99.90;;;7.28;100.00;94502.16;10542069;28;3283;-72
2022/11/21 13:12:20;;;;;;;;;;;7.90;99.90;;;7.52;100.00;94500.31;10535172;28;3228;-74
2022/11/21 13:17:23;;;;;;;;;;;8.60;99.90;;;8.07;100.00;94487.28;10519496;28;3128;-74
2022/11/21 13:22:26;;;;;;;;;;;;;;;7.82;100.00;94480.41;10509836;28;3282;-72
2022/11/21 13:27:29;;;;;;;;;;;8.60;99.90;;;7.89;100.00;94468.53;10511696;28;3596;-73
2022/11/21 13:32:39;;;;;;;;;;;8.60;99.90;;;8.07;100.00;94468.53;10519089;28;3164;-73
2022/11/21 13:37:42;;;;;;;;;;;8.70;99.90;;;7.99;100.00;94466.53;10511208;28;3167;-72
2022/11/21 13:42:57;;;;;;;;;;;8.80;99.90;;;7.49;100.00;94465.31;10516248;28;3238;-72
2022/11/21 13:48:20;;;;;;;;;;;;;;;7.31;100.00;94458.81;10515265;28;3203;-74
2022/11/21 13:53:23;;;;;;;;;;;;;;;7.47;100.00;94451.44;10520427;28;3132;-73
2022/11/21 13:58:25;;;;;;;;;;;8.30;99.90;;;7.87;100.00;94436.72;10509209;28;3262;-72
2022/11/21 14:03:28;;;;;;;;;;;8.40;99.90;;;7.63;100.00;94434.09;10493716;28;3261;-73
2022/11/21 14:08:31;;;;;;;;;;;8.50;99.90;;;7.39;100.00;94433.34;10517813;28;3203;-73
2022/11/21 14:13:34;;;;;;;;;;;8.30;99.90;;;7.29;100.00;94424.34;10520930;28;3224;-71
2022/11/21 14:18:37;;;;;;;;;;;8.20;99.90;;;7.67;100.00;94418.28;10505681;28;3164;-75
2022/11/21 14:23:40;;;;;;;;;;;8.30;99.90;;;7.68;100.00;94414.53;10506105;28;3179;-73
2022/11/21 14:28:42;;;;;;;;;;;8.40;99.90;;;7.96;100.00;94402.91;10518995;28;3145;-72
2022/11/21 14:33:46;;;;;;;;;;;8.60;99.90;;;7.90;100.00;94396.03;10509300;28;3172;-73
2022/11/21 14:38:49;;;;;;;;;;;8.60;99.90;;;7.69;100.00;94397.38;10509116;28;3203;-72
2022/11/21 14:44:11;;;;;;;;;;;8.60;99.90;;;7.58;100.00;94392.19;10522711;28;3188;-72
2022/11/21 14:49:14;;;;;;;;;;;8.40;99.90;;;7.35;100.00;94378.88;10499043;28;3282;-73
2022/11/21 14:54:17;;;;;;;;;;;8.30;99.90;;;7.03;100.00;94373.09;10510286;28;3182;-73
2022/11/21 14:59:20;;;;;;;;;;;8.10;99.90;;;6.74;100.00;94359.81;10497118;28;3473;-73
2022/11/21 15:04:22;;;;;;;;;;;7.80;99.90;;;6.40;100.00;94354.53;10499460;28;3143;-73
2022/11/21 15:09:25;;;;;;;;;;;7.70;99.90;;;5.89;100.00;94349.59;10509419;28;3299;-74
2022/11/21 15:14:48;;;;;;;;;;;7.30;99.90;;;5.50;100.00;94340.81;10505940;28;3275;-73
2022/11/21 15:19:50;;;;;;;;;;;6.90;99.90;;;5.20;100.00;94337.25;10515918;28;3132;-74
2022/11/21 15:24:55;;;;;;;;;;;6.60;99.90;;;4.96;100.00;94330.97;10501795;28;3089;-73
2022/11/21 15:29:57;;;;;;;;;;;6.30;99.90;;;4.84;100.00;94318.78;10512848;28;3076;-73
2022/11/21 15:35:00;;;;;;;;;;;6.20;99.90;;;4.66;100.00;94315.94;10498878;28;3158;-77
2022/11/21 15:40:03;;;;;;;;;;;6.00;99.90;;;4.45;100.00;94315.19;10505782;28;3142;-72
2022/11/21 15:45:05;;;;;;;;;;;5.80;99.90;;;4.45;100.00;94301.88;10509115;28;3294;-74
2022/11/21 15:50:08;;;;;;;;;;;5.70;99.90;;;4.26;100.00;94291.84;10510728;28;3260;-73
2022/11/21 15:55:11;;;;;;;;;;;5.50;99.90;;;4.15;100.00;94292.94;10514695;28;3815;-75
2022/11/21 16:00:14;;;;;;;;;;;5.40;99.90;;;4.07;100.00;94298.78;10505790;28;3147;-74
2022/11/21 16:05:16;;;;;;;;;;;5.20;99.90;;;4.06;100.00;94287.34;10502890;28;3163;-73
2022/11/21 16:10:20;;;;;;;;;;;5.10;99.90;;;3.92;100.00;94283.66;10497959;28;3137;-73
2022/11/21 16:15:29;;;;;;;;;;;5.10;99.90;;;3.77;100.00;94279.16;10498899;28;3438;-73
2022/11/21 16:20:34;;;;;;;;;;;4.90;99.90;;;3.64;100.00;94269.06;10495469;28;3183;-74
2022/11/21 16:25:37;;;;;;;;;;;;;;;3.53;100.00;94268.25;10503864;28;3196;-72
2022/11/21 16:30:40;;;;;;;;;;;4.70;99.90;;;3.58;100.00;94262.16;10509870;28;3263;-74
2022/11/21 16:35:42;;;;;;;;;;;4.80;99.90;;;3.48;100.00;94254.97;10504113;28;3132;-73
2022/11/21 16:40:45;;;;;;;;;;;4.70;99.90;;;3.42;100.00;94236.66;10518902;28;3194;-73
2022/11/21 16:45:48;;;;;;;;;;;4.80;99.90;;;3.33;100.00;94224.97;10492027;28;3254;-74
2022/11/21 16:50:50;;;;;;;;;;;4.60;99.90;;;3.34;100.00;94223.91;10515133;28;3244;-73
2022/11/21 16:55:53;;;;;;;;;;;4.50;99.90;;;3.13;100.00;94221.25;10503639;28;3199;-71
2022/11/21 17:00:56;;;;;;;;;;;4.40;99.90;;;3.15;100.00;94208.50;10512837;28;3124;-71
2022/11/21 17:05:59;;;;;;;;;;;4.40;99.90;;;2.99;100.00;94206.91;10515195;28;3151;-69
2022/11/21 17:11:02;;;;;;;;;;;4.20;99.90;;;2.91;100.00;94202.09;10514309;28;3328;-73
2022/11/21 17:16:05;;;;;;;;;;;4.20;99.90;;;2.84;100.00;94193.59;10517136;28;3124;-73
2022/11/21 17:21:08;;;;;;;;;;;4.10;99.90;;;2.65;100.00;94180.84;10513923;28;3196;-71
2022/11/21 17:26:11;;;;;;;;;;;3.90;99.90;;;2.58;100.00;94177.66;10514255;28;3188;-70
2022/11/21 17:31:14;;;;;;;;;;;;;;;2.54;100.00;94165.97;10524573;28;3263;-74
2022/11/21 17:36:16;;;;;;;;;;;4.00;99.90;;;2.49;100.00;94154.56;10532254;28;3212;-75
2022/11/21 17:41:19;;;;;;;;;;;3.70;99.90;;;2.44;100.00;94144.75;10528869;28;3124;-77
2022/11/21 17:46:24;;;;;;;;;;;;;;;2.40;100.00;94141.00;10541832;28;3405;-76
2022/11/21 17:51:27;;;;;;;;;;;;;;;2.52;100.00;94130.94;10540067;28;3215;-74
2022/11/21 17:56:30;;;;;;;;;;;;;;;2.54;100.00;94131.47;10529210;28;3214;-74
2022/11/21 18:01:33;;;;;;;;;;;3.70;99.90;;;2.56;100.00;94124.06;10530118;28;3119;-75
2022/11/21 18:06:36;;;;;;;;;;;3.70;99.90;;;2.50;100.00;94116.38;10512206;28;3204;-75
2022/11/21 18:11:40;;;;;;;;;;;;;;;2.41;100.00;94102.81;10525917;28;3199;-74
2022/11/21 18:16:43;;;;;;;;;;;;;;;2.37;100.00;94104.41;10524994;28;3182;-73
2022/11/21 18:21:55;;;;;;;;;;;;;;;2.30;100.00;94098.56;10524671;28;3219;-74
2022/11/21 18:26:58;;;;;;;;;;;;;;;2.26;100.00;94092.19;10527062;28;3263;-73
2022/11/21 18:32:01;;;;;;;;;;;;;;;2.32;100.00;94072.59;10530033;28;3195;-75
2022/11/21 18:37:04;;;;;;;;;;;;;;;2.29;100.00;94068.63;10526310;28;3215;-75
2022/11/21 18:42:08;;;;;;;;;;;;;;;2.35;100.00;94061.44;10520841;28;3256;-75
2022/11/21 18:47:11;;;;;;;;;;;;;;;2.32;100.00;94046.88;10530349;28;3180;-74
2022/11/21 18:52:23;;;;;;;;;;;;;;;2.20;100.00;94041.03;10510194;28;3176;-73
2022/11/21 18:57:26;;;;;;;;;;;;;;;2.08;100.00;94025.34;10526477;28;3214;-74
2022/11/21 19:02:29;;;;;;;;;;;;;;;2.05;100.00;94004.69;10531086;28;3342;-74
2022/11/21 19:07:32;;;;;;;;;;;;;;;1.93;100.00;93998.84;10521409;28;3244;-75
2022/11/21 19:12:35;;;;;;;;;;;;;;;1.87;100.00;93997.25;10519153;28;3124;-74
2022/11/21 19:17:42;;;;;;;;;;;;;;;1.79;100.00;93989.81;10532158;28;3179;-75
2022/11/21 19:22:45;;;;;;;;;;;;;;;1.76;100.00;93980.53;10522897;28;3199;-74
2022/11/21 19:27:48;;;;;;;;;;;;;;;1.77;100.00;93982.13;10518152;28;3147;-72
2022/11/21 19:32:51;;;;;;;;;;;;;;;1.74;100.00;93965.97;10512499;28;3174;-74
2022/11/21 19:37:55;;;;;;;;;;;;;;;1.66;100.00;93958.53;10526092;28;3127;-74
2022/11/21 19:42:58;;;;;;;;;;;;;;;1.73;100.00;93948.47;10522100;28;3367;-74
2022/11/21 19:48:01;;;;;;;;;;;;;;;1.83;100.00;93937.88;10526216;28;3623;-73
2022/11/21 19:53:04;;;;;;;;;;;;;;;1.66;100.00;93910.88;10524699;28;3236;-74
2022/11/21 19:58:07;;;;;;;;;;;;;;;1.55;100.00;93880.91;10517066;28;3127;-74
2022/11/21 20:03:11;;;;;;;;;;;;;;;1.48;100.00;93891.78;10520904;28;3402;-73
2022/11/21 20:08:14;;;;;;;;;;;;;;;1.50;100.00;93889.63;10512419;28;3127;-75
2022/11/21 20:13:20;;;;;;;;;;;;;;;1.46;100.00;93899.16;10528844;28;3149;-74
2022/11/21 20:18:23;;;;;;;;;;;;;;;1.65;100.00;93888.84;10513399;28;3203;-74
2022/11/21 20:23:27;;;;;;;;;;;;;;;1.77;100.00;93881.44;10519334;28;3301;-74
2022/11/21 20:28:31;;;;;;;;;;;;;;;1.73;100.00;93875.09;10525299;28;3258;-73
2022/11/21 20:33:35;;;;;;;;;;;;;;;1.66;100.00;93879.88;10537695;28;3160;-73
2022/11/21 20:38:40;;;;;;;;;;;;;;;1.57;100.00;93870.84;10532038;28;3326;-74
2022/11/21 20:43:43;;;;;;;;;;;;;;;1.49;100.00;93889.91;10530528;28;3275;-74
2022/11/21 20:49:06;;;;;;;;;;;;;;;1.44;100.00;93877.44;10535599;28;3239;-73
2022/11/21 20:54:12;;;;;;;;;;;;;;;1.35;100.00;93873.75;10532920;28;3183;-74
2022/11/21 20:59:15;;;;;;;;;;;;;;;1.38;100.00;93864.47;10530523;28;3345;-74
2022/11/21 21:04:19;;;;;;;;;;;;;;;1.30;100.00;93871.09;10537281;28;3212;-75
2022/11/21 21:09:22;;;;;;;;;;;;;;;1.34;100.00;93861.56;10520374;28;3155;-75
2022/11/21 21:14:25;;;;;;;;;;;;;;;1.43;100.00;93843.31;10529293;28;3156;-72
2022/11/21 21:19:28;;;;;;;;;;;;;;;1.49;100.00;93843.03;10531316;28;3165;-74
2022/11/21 21:24:32;;;;;;;;;;;;;;;1.59;100.00;93836.94;10534280;28;3198;-74
2022/11/21 21:29:36;;;;;;;;;;;;;;;1.76;100.00;93844.63;10514940;28;3227;-73
2022/11/21 21:34:40;;;;;;;;;;;;;;;1.87;100.00;93848.88;10515847;28;3193;-73
2022/11/21 21:39:43;;;;;;;;;;;;;;;1.98;100.00;93839.88;10518984;28;3186;-74
2022/11/21 21:44:46;;;;;;;;;;;;;;;2.02;100.00;93832.94;10512008;28;3131;-72
2022/11/21 21:49:49;;;;;;;;;;;;;;;2.09;100.00;93833.47;10509761;28;3187;-74
2022/11/21 21:54:53;;;;;;;;;;;;;;;2.13;100.00;93837.19;10504687;28;3293;-75
2022/11/21 21:59:56;;;;;;;;;;;;;;;2.11;100.00;93831.34;10510542;28;3650;-74
2022/11/21 22:04:59;;;;;;;;;;;;;;;2.11;100.00;93823.41;10509586;28;3179;-72
2022/11/21 22:10:05;;;;;;;;;;;;;;;2.13;100.00;93810.66;10517098;28;3215;-73
2022/11/21 22:15:08;;;;;;;;;;;;;;;2.09;100.00;93809.63;10506257;28;3187;-73
2022/11/21 22:20:11;;;;;;;;;;;;;;;2.09;100.00;93809.63;10509604;28;3544;-74
2022/11/21 22:25:14;;;;;;;;;;;;;;;2.10;100.00;93805.91;10512070;28;3303;-75
2022/11/21 22:30:17;;;;;;;;;;;;;;;2.13;100.00;93813.31;10506313;28;3200;-75
2022/11/21 22:35:21;;;;;;;;;;;;;;;2.00;100.00;93821.84;10519147;28;3347;-74
2022/11/21 22:40:24;;;;;;;;;;;;;;;1.89;100.00;93815.75;10513531;28;3146;-75
2022/11/21 22:45:27;;;;;;;;;;;;;;;1.94;100.00;93812.31;10518657;28;3210;-75
2022/11/21 22:50:30;;;;;;;;;;;;;;;1.87;100.00;93814.44;10515533;28;3202;-74
2022/11/21 22:55:33;;;;;;;;;;;;;;;1.85;100.00;93846.50;10507508;28;3366;-74
2022/11/21 23:00:37;;;;;;;;;;;;;;;1.82;100.00;93854.16;10514781;28;3183;-73
2022/11/21 23:05:40;;;;;;;;;;;;;;;1.79;100.00;93865.31;10512886;28;3220;-75
2022/11/21 23:10:43;;;;;;;;;;;;;;;1.83;100.00;93843.31;10510711;28;3129;-74
2022/11/21 23:15:50;;;;;;;;;;;;;;;1.97;100.00;93842.75;10510006;28;3370;-72
2022/11/21 23:20:54;;;;;;;;;;;;;;;1.98;100.00;93833.78;10508150;28;3182;-73
2022/11/21 23:25:57;;;;;;;;;;;;;;;2.06;100.00;93820.75;10514830;28;3215;-74
2022/11/21 23:31:00;;;;;;;;;;;;;;;2.15;100.00;93829.75;10511207;28;3248;-73
2022/11/21 23:36:03;;;;;;;;;;;;;;;2.26;100.00;93808.53;10511221;28;3683;-72
2022/11/21 23:41:06;;;;;;;;;;;;;;;2.26;100.00;93808.53;10506082;28;3124;-73
2022/11/21 23:46:09;;;;;;;;;;;;;;;2.30;100.00;93809.59;10509670;28;3169;-73
2022/11/21 23:51:13;;;;;;;;;;;;;;;2.39;100.00;93813.25;10499104;28;3303;-73
2022/11/21 23:56:17;;;;;;;;;;;;;;;2.43;100.00;93812.44;10505821;28;3187;-76
